createdAt,value
2019-01-18T00:00:56.886Z,0.70
2019-01-18T00:03:27.989Z,0.70
2019-01-18T00:05:58.198Z,0.70
2019-01-18T00:08:28.352Z,0.60
2019-01-18T00:10:58.582Z,0.60
2019-01-18T00:13:28.759Z,0.60
2019-01-18T00:15:58.982Z,0.50
2019-01-18T00:18:29.219Z,0.50
2019-01-18T00:20:59.421Z,0.50
2019-01-18T00:23:29.557Z,0.40
2019-01-18T00:25:59.766Z,0.40
2019-01-18T00:28:30.036Z,0.40
2019-01-18T00:31:00.313Z,0.40
2019-01-18T00:33:30.335Z,0.50
2019-01-18T00:36:00.601Z,0.50
2019-01-18T00:38:30.755Z,0.50
2019-01-18T00:41:00.941Z,0.50
2019-01-18T00:43:31.185Z,0.40
2019-01-18T00:46:01.394Z,0.40
2019-01-18T00:48:31.617Z,0.40
2019-01-18T00:51:01.862Z,0.40
2019-01-18T00:53:32.008Z,0.40
2019-01-18T00:56:02.169Z,0.40
2019-01-18T00:58:32.272Z,0.40
2019-01-18T01:01:02.503Z,0.50
2019-01-18T01:03:32.640Z,0.60
2019-01-18T01:06:02.830Z,0.60
2019-01-18T01:08:33.167Z,0.70
2019-01-18T01:11:03.378Z,0.80
2019-01-18T01:13:33.530Z,0.80
2019-01-18T01:16:03.731Z,0.80
2019-01-18T01:18:33.983Z,0.80
2019-01-18T01:21:04.348Z,0.70
2019-01-18T01:23:34.407Z,0.70
2019-01-18T01:26:04.539Z,0.80
2019-01-18T01:28:34.730Z,0.80
2019-01-18T01:31:05.544Z,0.80
2019-01-18T01:33:35.677Z,0.80
2019-01-18T01:36:05.937Z,0.70
2019-01-18T01:38:36.044Z,0.70
2019-01-18T01:41:06.102Z,0.60
2019-01-18T01:43:36.213Z,0.60
2019-01-18T01:46:06.305Z,0.60
2019-01-18T01:48:36.413Z,0.50
2019-01-18T01:51:06.539Z,0.50
2019-01-18T01:53:36.661Z,0.40
2019-01-18T01:56:07.016Z,0.30
2019-01-18T01:58:37.135Z,0.30
2019-01-18T02:01:07.425Z,0.20
2019-01-18T02:03:37.553Z,0.20
2019-01-18T02:06:07.832Z,0.20
2019-01-18T02:08:37.873Z,0.20
2019-01-18T02:11:08.036Z,0.20
2019-01-18T02:13:38.250Z,0.10
2019-01-18T02:16:08.333Z,0.10
2019-01-18T02:18:38.387Z,0.00
2019-01-18T02:21:08.483Z,0.00
2019-01-18T02:23:38.603Z,0.00
2019-01-18T02:26:08.678Z,-0.10
2019-01-18T02:28:38.768Z,-0.10
2019-01-18T02:31:08.869Z,-0.10
2019-01-18T02:33:38.937Z,-0.20
2019-01-18T02:36:09.208Z,-0.10
2019-01-18T02:38:39.394Z,-0.10
2019-01-18T02:41:09.582Z,-0.20
2019-01-18T02:43:39.702Z,-0.10
2019-01-18T02:46:09.910Z,-0.10
2019-01-18T02:48:40.077Z,-0.10
2019-01-18T02:51:10.404Z,-0.10
2019-01-18T02:53:40.457Z,-0.10
2019-01-18T02:56:10.678Z,-0.10
2019-01-18T02:58:40.812Z,-0.10
2019-01-18T03:01:10.949Z,-0.10
2019-01-18T03:03:40.984Z,0.00
2019-01-18T03:06:11.117Z,-0.10
2019-01-18T03:08:41.188Z,-0.10
2019-01-18T03:11:13.919Z,-0.10
2019-01-18T03:13:45.725Z,-0.10
2019-01-18T03:16:15.911Z,-0.10
2019-01-18T03:18:47.100Z,-0.10
2019-01-18T03:21:17.282Z,-0.20
2019-01-18T03:23:47.421Z,-0.20
2019-01-18T03:26:17.597Z,-0.20
2019-01-18T03:28:47.740Z,-0.20
2019-01-18T03:31:18.031Z,-0.20
2019-01-18T03:33:48.158Z,-0.10
2019-01-18T03:36:19.079Z,-0.10
2019-01-18T03:38:49.204Z,-0.10
2019-01-18T03:41:19.507Z,-0.10
2019-01-18T03:43:49.650Z,-0.10
2019-01-18T03:46:19.819Z,-0.10
2019-01-18T03:48:49.951Z,-0.10
2019-01-18T03:51:20.105Z,-0.10
2019-01-18T03:53:50.244Z,-0.20
2019-01-18T03:56:20.376Z,-0.20
2019-01-18T03:58:51.936Z,-0.30
2019-01-18T04:01:22.097Z,-0.30
2019-01-18T04:03:52.178Z,-0.40
2019-01-18T04:06:22.399Z,-0.40
2019-01-18T04:08:52.531Z,-0.50
2019-01-18T04:11:22.741Z,-0.50
2019-01-18T04:13:52.975Z,-0.60
2019-01-18T04:16:23.826Z,-0.60
2019-01-18T04:18:54.083Z,-0.60
2019-01-18T04:21:27.779Z,-0.40
2019-01-18T04:23:57.861Z,-0.30
2019-01-18T04:26:28.090Z,-0.30
2019-01-18T04:28:58.225Z,-0.40
2019-01-18T04:31:28.297Z,-0.40
2019-01-18T04:33:58.374Z,-0.40
2019-01-18T04:36:28.565Z,-0.50
2019-01-18T04:38:58.640Z,-0.60
2019-01-18T04:41:28.784Z,-0.70
2019-01-18T04:43:58.986Z,-0.70
2019-01-18T04:46:29.342Z,-0.80
2019-01-18T04:48:59.577Z,-0.90
2019-01-18T04:51:29.772Z,-0.90
2019-01-18T04:53:59.844Z,-0.90
2019-01-18T04:56:30.079Z,-0.80
2019-01-18T04:59:00.318Z,-0.80
2019-01-18T05:01:30.436Z,-0.80
2019-01-18T05:04:03.221Z,-0.80
2019-01-18T05:06:34.113Z,-0.90
2019-01-18T05:09:06.601Z,-0.90
2019-01-18T05:11:36.780Z,-0.90
2019-01-18T05:14:06.864Z,-0.90
2019-01-18T05:16:39.658Z,-0.90
2019-01-18T05:19:09.703Z,-0.90
2019-01-18T05:21:39.830Z,-0.90
2019-01-18T05:24:11.068Z,-1.00
2019-01-18T05:26:41.467Z,-1.10
2019-01-18T05:29:11.584Z,-1.20
2019-01-18T05:31:41.699Z,-1.20
2019-01-18T05:34:11.864Z,-1.20
2019-01-18T05:36:42.107Z,-1.20
2019-01-18T05:39:12.262Z,-1.20
2019-01-18T05:41:42.497Z,-1.20
2019-01-18T05:44:12.740Z,-1.30
2019-01-18T05:46:43.026Z,-1.30
2019-01-18T05:49:13.264Z,-1.30
2019-01-18T05:51:43.563Z,-1.20
2019-01-18T05:54:13.669Z,-1.20
2019-01-18T05:56:43.972Z,-1.20
2019-01-18T05:59:14.211Z,-1.20
2019-01-18T06:01:44.374Z,-1.20
2019-01-18T06:04:14.506Z,-1.20
2019-01-18T06:06:44.594Z,-1.30
2019-01-18T06:09:14.631Z,-1.20
2019-01-18T06:11:45.076Z,-1.20
2019-01-18T06:14:15.258Z,-1.20
2019-01-18T06:16:45.491Z,-1.20
2019-01-18T06:19:15.702Z,-1.30
2019-01-18T06:21:47.994Z,-1.20
2019-01-18T06:24:18.184Z,-1.20
2019-01-18T06:26:48.364Z,-1.20
2019-01-18T06:29:18.482Z,-1.20
2019-01-18T06:31:48.593Z,-1.20
2019-01-18T06:34:20.528Z,-1.20
2019-01-18T06:36:50.667Z,-1.30
2019-01-18T06:39:20.920Z,-1.30
2019-01-18T06:41:54.482Z,-1.40
2019-01-18T06:44:24.973Z,-1.40
2019-01-18T06:46:55.462Z,-1.40
2019-01-18T06:49:26.606Z,-1.40
2019-01-18T06:51:56.920Z,-1.40
2019-01-18T06:54:27.097Z,-1.40
2019-01-18T06:56:57.328Z,-1.40
2019-01-18T06:59:27.460Z,-1.40
2019-01-18T07:01:57.585Z,-1.40
2019-01-18T07:04:27.734Z,-1.40
2019-01-18T07:06:57.954Z,-1.50
2019-01-18T07:09:28.107Z,-1.40
2019-01-18T07:11:58.419Z,-1.50
2019-01-18T07:14:28.684Z,-1.40
2019-01-18T07:16:58.915Z,-1.50
2019-01-18T07:19:29.062Z,-1.50
2019-01-18T07:21:59.259Z,-1.40
2019-01-18T07:24:30.532Z,-1.40
2019-01-18T07:27:00.651Z,-1.30
2019-01-18T07:29:30.784Z,-1.40
2019-01-18T07:32:00.905Z,-1.40
2019-01-18T07:34:31.052Z,-1.40
2019-01-18T07:37:01.309Z,-1.30
2019-01-18T07:39:31.434Z,-1.20
2019-01-18T07:42:02.458Z,-1.20
2019-01-18T07:44:32.659Z,-1.10
2019-01-18T07:47:02.922Z,-1.10
2019-01-18T07:49:33.070Z,-1.10
2019-01-18T07:52:03.227Z,-1.10
2019-01-18T07:54:33.400Z,-1.10
2019-01-18T07:57:03.673Z,-1.00
2019-01-18T07:59:33.727Z,-1.00
2019-01-18T08:02:03.773Z,-1.00
2019-01-18T08:04:33.831Z,-0.90
2019-01-18T08:07:04.009Z,-0.90
2019-01-18T08:09:34.065Z,-0.90
2019-01-18T08:12:04.350Z,-0.80
2019-01-18T08:14:34.514Z,-0.70
2019-01-18T08:17:04.660Z,-0.70
2019-01-18T08:19:34.739Z,-0.60
2019-01-18T08:22:04.944Z,-0.50
2019-01-18T08:24:35.073Z,-0.50
2019-01-18T08:27:05.299Z,-0.50
2019-01-18T08:29:35.489Z,-0.50
2019-01-18T08:32:05.915Z,-0.50
2019-01-18T08:34:36.319Z,-0.50
2019-01-18T08:37:06.497Z,-0.40
2019-01-18T08:39:38.114Z,-0.30
2019-01-18T08:42:08.174Z,-0.30
2019-01-18T08:44:38.386Z,-0.30
2019-01-18T08:47:10.627Z,-0.30
2019-01-18T08:49:41.356Z,-0.40
2019-01-18T08:52:12.347Z,-0.40
2019-01-18T08:54:42.424Z,-0.40
2019-01-18T08:57:12.592Z,-0.40
2019-01-18T08:59:43.791Z,-0.40
2019-01-18T09:02:13.980Z,-0.40
2019-01-18T09:04:44.224Z,-0.30
2019-01-18T09:07:14.421Z,-0.30
2019-01-18T09:09:44.501Z,-0.20
2019-01-18T09:12:14.822Z,-0.20
2019-01-18T09:14:45.026Z,-0.20
2019-01-18T09:17:15.858Z,-0.10
2019-01-18T09:19:46.005Z,0.00
2019-01-18T09:22:16.266Z,0.10
2019-01-18T09:24:46.362Z,0.20
2019-01-18T09:27:17.386Z,0.30
2019-01-18T09:29:47.576Z,0.40
2019-01-18T09:32:17.725Z,0.50
2019-01-18T09:34:47.860Z,0.50
2019-01-18T09:37:18.515Z,0.50
2019-01-18T09:39:48.584Z,0.60
2019-01-18T09:42:18.672Z,0.60
2019-01-18T09:44:48.738Z,0.70
2019-01-18T09:47:18.930Z,0.70
2019-01-18T09:49:49.112Z,0.70
2019-01-18T09:52:19.237Z,0.80
2019-01-18T09:54:49.299Z,0.90
2019-01-18T09:57:20.100Z,0.90
2019-01-18T09:59:50.515Z,1.00
2019-01-18T10:02:20.694Z,1.20
2019-01-18T10:04:50.903Z,1.40
2019-01-18T10:07:21.142Z,1.60
2019-01-18T10:09:51.280Z,1.80
2019-01-18T10:12:21.543Z,1.90
2019-01-18T10:14:51.729Z,2.00
2019-01-18T10:17:22.523Z,2.00
2019-01-18T10:19:52.686Z,2.00
2019-01-18T10:22:22.838Z,2.10
2019-01-18T10:24:53.608Z,2.20
2019-01-18T10:27:23.925Z,2.30
2019-01-18T10:29:54.071Z,2.40
2019-01-18T10:32:24.250Z,2.50
2019-01-18T10:34:54.403Z,2.60
2019-01-18T10:37:24.497Z,2.60
2019-01-18T10:39:54.678Z,2.60
2019-01-18T10:42:24.788Z,2.50
2019-01-18T10:44:54.976Z,2.50
2019-01-18T10:47:25.110Z,2.50
2019-01-18T10:49:55.394Z,2.50
2019-01-18T10:52:25.572Z,2.50
2019-01-18T10:54:56.811Z,2.50
2019-01-18T10:57:27.014Z,2.60
2019-01-18T10:59:57.709Z,2.70
2019-01-18T11:02:27.897Z,2.80
2019-01-18T11:04:58.042Z,3.00
2019-01-18T11:07:28.234Z,3.10
2019-01-18T11:09:58.396Z,3.10
2019-01-18T11:12:28.562Z,3.20
2019-01-18T11:14:58.725Z,3.30
2019-01-18T11:17:28.864Z,3.40
2019-01-18T11:19:58.917Z,3.50
2019-01-18T11:22:29.075Z,3.50
2019-01-18T11:24:59.188Z,3.50
2019-01-18T11:27:29.342Z,3.50
2019-01-18T11:29:59.461Z,3.60
2019-01-18T11:32:29.676Z,3.50
2019-01-18T11:35:00.011Z,3.50
2019-01-18T11:37:30.256Z,3.50
2019-01-18T11:40:01.362Z,3.50
2019-01-18T11:42:31.599Z,3.40
2019-01-18T11:45:01.656Z,3.20
2019-01-18T11:47:33.402Z,3.10
2019-01-18T11:50:03.644Z,3.10
2019-01-18T11:52:33.863Z,3.10
2019-01-18T11:55:04.188Z,3.00
2019-01-18T11:57:34.376Z,3.00
2019-01-18T12:00:06.375Z,3.00
2019-01-18T12:02:36.698Z,3.00
2019-01-18T12:05:07.009Z,3.10
2019-01-18T12:07:37.312Z,3.10
2019-01-18T12:10:09.975Z,3.20
2019-01-18T12:12:40.165Z,3.20
2019-01-18T12:15:11.404Z,3.30
2019-01-18T12:17:42.465Z,3.30
2019-01-18T12:20:20.455Z,3.40
2019-01-18T12:22:50.611Z,3.40
2019-01-18T12:25:20.815Z,3.50
2019-01-18T12:27:52.264Z,3.40
2019-01-18T12:30:27.996Z,3.50
2019-01-18T12:32:58.078Z,3.50
2019-01-18T12:35:28.285Z,3.50
2019-01-18T12:37:58.483Z,3.50
2019-01-18T12:40:28.763Z,3.60
2019-01-18T12:42:58.909Z,3.70
2019-01-18T12:45:29.177Z,3.70
2019-01-18T12:47:59.710Z,3.80
2019-01-18T12:50:35.466Z,4.00
2019-01-18T12:53:05.645Z,4.00
2019-01-18T12:55:35.770Z,4.20
2019-01-18T12:58:06.441Z,4.30
2019-01-18T13:00:36.764Z,4.50
2019-01-18T13:03:07.667Z,4.60
2019-01-18T13:05:43.624Z,4.80
2019-01-18T13:08:13.787Z,4.80
2019-01-18T13:10:43.890Z,4.80
2019-01-18T13:13:13.989Z,4.80
2019-01-18T13:16:17.370Z,4.70
2019-01-18T13:18:50.745Z,4.60
2019-01-18T13:21:20.857Z,4.60
2019-01-18T13:23:51.134Z,4.50
2019-01-18T13:26:21.175Z,4.50
2019-01-18T13:28:51.306Z,4.50
2019-01-18T13:31:21.459Z,4.60
2019-01-18T13:33:51.642Z,4.60
2019-01-18T13:36:21.761Z,4.70
2019-01-18T13:38:52.223Z,4.90
2019-01-18T13:41:22.365Z,5.20
2019-01-18T13:43:52.506Z,5.40
2019-01-18T13:46:22.597Z,5.50
2019-01-18T13:48:52.669Z,5.70
2019-01-18T13:51:22.882Z,5.80
2019-01-18T13:53:53.152Z,5.90
2019-01-18T13:56:23.371Z,5.80
2019-01-18T13:58:55.369Z,5.80
2019-01-18T14:01:25.659Z,5.80
2019-01-18T14:03:55.851Z,5.80
2019-01-18T14:06:26.076Z,5.80
2019-01-18T14:08:56.164Z,5.90
2019-01-18T14:11:26.361Z,5.90
2019-01-18T14:13:56.564Z,5.70
2019-01-18T14:16:26.716Z,5.60
2019-01-18T14:18:57.144Z,5.40
2019-01-18T14:21:27.199Z,5.40
2019-01-18T14:23:57.388Z,5.30
2019-01-18T14:26:27.509Z,5.30
2019-01-18T14:28:57.658Z,5.30
2019-01-18T14:31:27.850Z,5.20
2019-01-18T14:33:58.042Z,5.10
2019-01-18T14:36:28.123Z,5.10
2019-01-18T14:38:58.303Z,5.00
2019-01-18T14:41:31.097Z,5.00
2019-01-18T14:44:00.382Z,4.90
2019-01-18T14:46:30.498Z,4.80
2019-01-18T14:49:03.060Z,4.70
2019-01-18T14:51:33.551Z,4.60
2019-01-18T14:54:04.772Z,4.60
2019-01-18T14:56:34.853Z,4.60
2019-01-18T14:59:05.423Z,4.60
2019-01-18T15:01:35.640Z,4.50
2019-01-18T15:04:05.815Z,4.40
2019-01-18T15:06:35.942Z,4.40
2019-01-18T15:09:10.465Z,4.50
2019-01-18T15:11:40.611Z,4.50
2019-01-18T15:14:10.806Z,4.50
2019-01-18T15:16:40.834Z,4.50
2019-01-18T15:19:10.981Z,4.40
2019-01-18T15:21:41.098Z,4.30
2019-01-18T15:24:11.217Z,4.20
2019-01-18T15:26:41.335Z,4.00
2019-01-18T15:29:11.525Z,3.90
2019-01-18T15:31:41.564Z,3.80
2019-01-18T15:34:11.691Z,3.60
2019-01-18T15:36:41.821Z,3.50
2019-01-18T15:39:13.188Z,3.40
2019-01-18T15:41:45.079Z,3.40
2019-01-18T15:44:17.061Z,3.30
2019-01-18T15:46:49.147Z,3.20
2019-01-18T15:49:21.208Z,3.10
2019-01-18T15:51:52.564Z,3.10
2019-01-18T15:54:23.900Z,3.00
2019-01-18T15:56:55.358Z,2.90
2019-01-18T15:59:26.449Z,2.70
2019-01-18T16:01:58.518Z,2.70
2019-01-18T16:04:30.989Z,2.60
2019-01-18T16:07:03.087Z,2.60
2019-01-18T16:09:34.301Z,2.60
2019-01-18T16:12:05.592Z,2.50
2019-01-18T16:14:37.632Z,2.50
2019-01-18T16:17:17.106Z,2.50
2019-01-18T16:19:48.359Z,2.50
2019-01-18T16:22:19.582Z,2.40
2019-01-18T16:24:50.511Z,2.40
2019-01-18T16:27:21.405Z,2.40
2019-01-18T16:29:52.244Z,2.40
2019-01-18T16:32:23.247Z,2.40
2019-01-18T16:34:54.361Z,2.30
2019-01-18T16:37:24.777Z,2.30
2019-01-18T16:39:55.027Z,2.20
2019-01-18T16:42:25.112Z,2.10
2019-01-18T16:44:55.415Z,2.10
2019-01-18T16:47:25.559Z,2.00
2019-01-18T16:49:56.780Z,2.00
2019-01-18T16:52:26.991Z,2.00
2019-01-18T16:54:57.184Z,1.90
2019-01-18T16:57:27.257Z,1.80
2019-01-18T16:59:57.483Z,1.80
2019-01-18T17:02:27.743Z,1.70
2019-01-18T17:04:58.002Z,1.70
2019-01-18T17:07:28.210Z,1.60
2019-01-18T17:09:58.330Z,1.60
2019-01-18T17:12:28.395Z,1.50
2019-01-18T17:14:58.612Z,1.50
2019-01-18T17:17:29.041Z,1.50
2019-01-18T17:19:59.228Z,1.50
2019-01-18T17:22:29.433Z,1.50
2019-01-18T17:24:59.650Z,1.50
2019-01-18T17:27:29.892Z,1.40
2019-01-18T17:30:00.136Z,1.40
2019-01-18T17:32:30.422Z,1.30
2019-01-18T17:35:00.607Z,1.30
2019-01-18T17:37:38.083Z,1.30
2019-01-18T17:40:35.735Z,1.40
2019-01-18T17:43:23.881Z,1.40
2019-01-18T17:46:35.687Z,1.40
2019-01-18T17:49:32.123Z,1.30
2019-01-18T17:52:43.246Z,1.30
2019-01-18T17:55:53.217Z,1.40
2019-01-18T17:59:08.650Z,1.40
2019-01-18T18:02:21.526Z,1.50
2019-01-18T18:05:41.808Z,1.40
2019-01-18T18:08:23.939Z,1.50
2019-01-18T18:11:59.095Z,1.60
2019-01-18T18:15:03.826Z,1.60
2019-01-18T18:17:46.853Z,1.60
2019-01-18T18:20:52.594Z,1.60
2019-01-18T18:23:49.923Z,1.60
2019-01-18T18:26:59.830Z,1.60
2019-01-18T18:29:57.737Z,1.70
2019-01-18T18:33:08.340Z,1.60
2019-01-18T18:36:19.484Z,1.60
2019-01-18T18:39:42.317Z,1.60
2019-01-18T18:42:46.279Z,1.60
2019-01-18T18:46:06.832Z,1.60
2019-01-18T18:49:19.619Z,1.60
2019-01-18T18:52:33.880Z,1.60
2019-01-18T18:55:43.136Z,1.60
2019-01-18T18:58:57.432Z,1.50
2019-01-18T19:02:10.388Z,1.40
2019-01-18T19:05:16.414Z,1.40
2019-01-18T19:08:23.523Z,1.40
2019-01-18T19:11:35.563Z,1.40
2019-01-18T19:14:48.122Z,1.30
2019-01-18T19:18:04.199Z,1.30
2019-01-18T19:20:47.732Z,1.30
2019-01-18T19:23:52.397Z,1.30
2019-01-18T19:27:01.571Z,1.30
2019-01-18T19:30:07.558Z,1.30
2019-01-18T19:33:05.283Z,1.30
2019-01-18T19:36:09.977Z,1.30
2019-01-18T19:39:28.522Z,1.40
2019-01-18T19:42:24.675Z,1.40
2019-01-18T19:45:34.786Z,1.30
2019-01-18T19:48:45.503Z,1.30
2019-01-18T19:51:34.805Z,1.20
2019-01-18T19:54:14.658Z,1.20
2019-01-18T19:57:07.359Z,1.20
2019-01-18T20:00:22.825Z,1.20
2019-01-18T20:03:22.553Z,1.30
2019-01-18T20:06:51.932Z,1.30
2019-01-18T20:10:02.589Z,1.30
2019-01-18T20:13:12.989Z,1.30
2019-01-18T20:16:21.511Z,1.30
2019-01-18T20:19:29.665Z,1.20
2019-01-18T20:22:26.316Z,1.20
2019-01-18T20:25:19.976Z,1.20
2019-01-18T20:28:10.931Z,1.10
2019-01-18T20:31:20.750Z,1.10
2019-01-18T20:34:18.775Z,1.10
2019-01-18T20:37:27.195Z,1.10
2019-01-18T20:40:25.044Z,1.10
2019-01-18T20:43:45.465Z,1.00
2019-01-18T20:46:53.555Z,1.00
2019-01-18T20:49:58.922Z,1.00
2019-01-18T20:53:02.174Z,1.00
2019-01-18T20:55:56.600Z,1.00
2019-01-18T20:58:56.637Z,1.10
2019-01-18T21:01:57.645Z,1.10
2019-01-18T21:05:10.450Z,1.10
2019-01-18T21:08:27.153Z,1.00
2019-01-18T21:11:25.010Z,0.90
2019-01-18T21:14:19.261Z,0.90
2019-01-18T21:17:48.447Z,0.80
2019-01-18T21:20:56.103Z,0.80
2019-01-18T21:23:42.317Z,0.70
2019-01-18T21:26:40.527Z,0.70
2019-01-18T21:30:00.537Z,0.70
2019-01-18T21:33:08.867Z,0.60
2019-01-18T21:36:06.116Z,0.60
2019-01-18T21:39:25.422Z,0.60
2019-01-18T21:42:32.541Z,0.60
2019-01-18T21:45:34.685Z,0.50
2019-01-18T21:48:19.939Z,0.40
2019-01-18T21:51:44.993Z,0.30
2019-01-18T21:55:02.401Z,0.20
2019-01-18T21:58:08.844Z,0.20
2019-01-18T22:01:14.724Z,0.20
2019-01-18T22:04:06.751Z,0.20
2019-01-18T22:06:48.859Z,0.10
2019-01-18T22:09:39.654Z,0.00
2019-01-18T22:12:48.473Z,-0.10
2019-01-18T22:16:02.864Z,-0.10
2019-01-18T22:19:05.416Z,-0.20
2019-01-18T22:22:40.258Z,-0.30
2019-01-18T22:25:30.121Z,-0.40
2019-01-18T22:28:07.732Z,-0.50
2019-01-18T22:31:17.937Z,-0.50
2019-01-18T22:34:16.779Z,-0.50
2019-01-18T22:37:17.639Z,-0.60
2019-01-18T22:40:23.253Z,-0.60
2019-01-18T22:43:37.248Z,-0.60
2019-01-18T22:46:42.978Z,-0.60
2019-01-18T22:49:36.831Z,-0.50
2019-01-18T22:52:39.427Z,-0.60
2019-01-18T22:55:44.785Z,-0.60
2019-01-18T22:58:57.888Z,-0.70
2019-01-18T23:02:14.271Z,-0.70
2019-01-18T23:05:16.098Z,-0.70
2019-01-18T23:08:25.069Z,-0.70
2019-01-18T23:11:20.984Z,-0.70
2019-01-18T23:14:16.510Z,-0.70
2019-01-18T23:17:25.989Z,-0.70
2019-01-18T23:20:36.447Z,-0.70
2019-01-18T23:23:34.033Z,-0.70
2019-01-18T23:26:37.757Z,-0.60
2019-01-18T23:29:32.654Z,-0.70
2019-01-18T23:32:49.886Z,-0.80
2019-01-18T23:36:00.029Z,-0.90
2019-01-18T23:39:10.418Z,-0.90
2019-01-18T23:42:13.047Z,-0.90
2019-01-18T23:45:12.570Z,-1.00
2019-01-18T23:47:53.982Z,-1.10
2019-01-18T23:50:39.417Z,-1.10
2019-01-18T23:53:29.498Z,-1.10
2019-01-18T23:56:22.772Z,-1.10
2019-01-18T23:59:24.486Z,-1.10
